X  SluitMETAR luchtvaart weer gegevens      EBBR Brussels Airport

Temperatuur

4°C Temperatuur

2°C Dauwpunt

87% Vochtigheid



Wind

16 KM/U

10 MPH

 4 M/S

 9 KTS



240°
West Zuid
West
Huidig weer

Wat bewolking Wat bewolking
Luchtdruk 988.92 (hPa) - 29.2 (in)
Zicht 6.2 (mi) - 10 (km)
Vliegveld
Vliegveld code EBBR

Locatie Brussels Airport 14 (km)

Metar:
EBBR 220250Z 24009KT 9999 FEW011 04/02 Q0989 NOSIG

Tijd: 22-01-2021 03:50